Tiempo atmosférico en la estación meteorológica de Castellote, Teruel (755 m.)



Fecha
DESCASC
Temp. máxima en grados centígrados (hora)
DESCASC
Temp. mínima en grados centígrados (hora)
DESCASC
Temp. media en grados centígrados
DESCASC
Racha de viento máxima en m/sg (hora)
DESCASC
Velocidad máxima media en intervalos de 10 minutos(hora)
DESCASC
Precipitaciones diarias en mm
DESCASC
Precipitaciones de 00:00 a 06:00 en mm
DESCASC
Precipitaciones de 06:00 a 12:00 en mm
DESCASC
Precipitaciones de 12:00 a 18:00 en mm
DESCASC
Precipitaciones de 18:00 a 24:00 en mm
DESCASC
10-11-2019 9.1 (00:00) 2.9 (00:00) 6 24.17 (00:30) 12.78 (00:30) 4.2 4.2 0 0 0
09-11-2019 12.8 (13:30) 5.2 (00:00) 9 16.11 (01:40) 8.33 (01:40) 0 0 0 0 0
08-11-2019 11.3 (14:50) 4.2 (05:20) 7.8 19.17 (13:20) 8.33 (13:50) 1.4 0 0 0 1.4
07-11-2019 13.8 (10:20) 6 (00:00) 9.9 15.56 (22:50) 8.33 (22:50) 0.8 0 0.4 0.4 0
06-11-2019 14.3 (14:30) 7.3 (00:00) 10.8 12.78 (12:20) 7.5 (12:30) 0 0 0 0 0
05-11-2019 13.9 (14:40) 8 (00:00) 10.9 18.89 (13:30) 10 (09:00) 0.2 0.2 0 0 0
04-11-2019 19.9 (15:30) 10.7 (00:00) 15.3 16.67 (16:00) 10.56 (16:10) 1.6 0 0 0 1.6
03-11-2019 16.7 (15:10) 8.9 (00:00) 12.8 22.22 (12:30) 11.67 (08:30) 1.2 0 1.2 0 0
02-11-2019 22.7 (14:10) 16.4 (00:00) 19.6 16.39 (06:10) 9.72 (05:40) 0.2 0.2 0 0 0
01-11-2019 21.9 (14:00) 13.3 (00:00) 17.6 11.94 (23:30) 6.39 (23:20) 0.6 0 0 0.4 0.2
31-10-2019 19.6 (13:50) 13.9 (23:59) 16.8 13.06 (14:10) 7.5 (16:00) 0 0 0 0 0
30-10-2019 21.3 (12:40) 11 (00:00) 16.1 6.67 (13:00) 4.17 (14:30) 0 0 0 0 0
29-10-2019 21.3 (13:40) 11.4 (00:00) 16.3 7.22 (15:00) 3.06 (14:40) 0 0 0 0 0
28-10-2019 19 (15:50) 12.5 (00:00) 15.8 4.72 (15:40) 2.5 (15:50) 0 0 0 0 0
27-10-2019 21.4 (13:50) 9 (00:00) 15.2 5.56 (14:00) 2.78 (06:50) 0 0 0 0 0
26-10-2019 22.3 (15:10) 9.4 (00:00) 15.8 6.39 (16:50) 3.33 (16:50) 0 0 0 0 0
25-10-2019 21.6 (16:20) 10.4 (00:00) 16 6.94 (15:00) 4.72 (15:00) 0 0 0 0 0
24-10-2019 15.7 (17:00) 6.4 (00:00) 11 10.83 (17:20) 4.72 (18:40) 0 0 0 0 0
23-10-2019 13.8 (14:20) 6.4 (00:00) 10.1 8.06 (00:30) 3.61 (21:40) 3.4 2.6 0.2 0.6 0
22-10-2019 9.5 (00:00) 7.3 (15:20) 8.4 11.94 (15:00) 6.11 (15:00) 41 0 14.8 26 0.2
21-10-2019 15 (16:10) 6.2 (00:00) 10.6 7.22 (16:20) 3.33 (17:50) 0 0 0 0 0
20-10-2019 16.6 (02:10) 10.3 (00:00) 13.5 13.06 (09:30) 8.61 (09:30) 0 0 0 0 0
19-10-2019 22.7 (13:20) 14 (00:00) 18.4 13.89 (18:30) 9.17 (18:30) 0 0 0 0 0
18-10-2019 24.1 (15:10) 14 (00:00) 19.1 9.17 (18:00) 4.72 (16:00) 0 0 0 0 0
17-10-2019 21.8 (13:30) 8.4 (00:00) 15.1 8.33 (14:50) 4.72 (14:50) 0 0 0 0 0
16-10-2019 22 (18:00) 8.1 (00:00) 15.1 7.5 (16:40) 4.44 (16:30) 0 0 0 0 0
15-10-2019 18.5 (17:10) 8.3 (00:00) 13.4 14.72 (15:10) 8.33 (04:00) 0 0 0 0 0
14-10-2019 22.1 (17:40) 14.7 (00:00) 18.4 17.78 (13:20) 12.22 (23:40) 0 0 0 0 0

Gráficas

Temp. máximas Temp. mínimas Temp. medias Precipitaciones Rachas de viento máximas Velocidades máximas media en intervalos de 10 minutos

Datos horarios

Fecha y hora oficial Temperatura (ºC) Velocidad del viento (km/h) Dirección del viento Racha (km/h) Dirección de racha Precipitación (mm) Presión (hPa) Tendencia (hPa) Humedad (%)
2019-11-12 23:00:00 7.9 4 Oeste 17 Sudoeste 0 -- -- 68
2019-11-12 22:00:00 8.1 6 Oeste 19 Sudoeste 0 -- -- 61
2019-11-12 21:00:00 7.4 4 Sur 17 Noroeste 0 -- -- 64
2019-11-12 20:00:00 7.6 5 Oeste 21 Sur 0 -- -- 63
2019-11-12 19:00:00 8.5 11 Oeste 28 Oeste 0 -- -- 58
2019-11-12 18:00:00 9.2 14 Oeste 31 Oeste 0 -- -- 56
2019-11-12 17:00:00 11 12 Oeste 36 Oeste 0 -- -- 51
2019-11-12 16:00:00 11.6 15 Oeste 44 Noroeste 0 -- -- 51
2019-11-12 15:00:00 11.2 22 Noroeste 56 Noroeste 0 -- -- 51
2019-11-12 14:00:00 10.3 20 Oeste 51 Noroeste 0 -- -- 55
2019-11-12 13:00:00 9.9 23 Oeste 54 Noroeste 0 -- -- 55
2019-11-12 12:00:00 9.4 18 Oeste 54 Noroeste 0 -- -- 58
2019-11-12 11:00:00 8.6 22 Oeste 49 Noroeste 0 -- -- 63
2019-11-12 10:00:00 7.7 22 Oeste 58 Noroeste 0 -- -- 65
2019-11-12 09:00:00 6.7 23 Oeste 50 Noroeste 0 -- -- 67
2019-11-12 08:00:00 5.7 14 Oeste 51 Noroeste 0 -- -- 70
2019-11-12 07:00:00 5.5 22 Oeste 58 Noroeste 0 -- -- 70
2019-11-12 06:00:00 5.3 17 Oeste 62 Noroeste 0 -- -- 70
2019-11-12 05:00:00 5.1 15 Oeste 41 Oeste 0 -- -- 68
2019-11-12 04:00:00 4.8 6 Oeste 29 Noroeste 0 -- -- 69
2019-11-12 03:00:00 5.2 12 Oeste 41 Oeste 0 -- -- 69
2019-11-12 02:00:00 5.4 26 Oeste 59 Sudoeste 0 -- -- 71
2019-11-12 01:00:00 5.4 21 Oeste 53 Oeste 0 -- -- 70
2019-11-12 00:00:00 5.5 18 Oeste 55 Oeste 0 -- -- 71
2019-11-11 23:00:00 5.9 24 Oeste 55 Oeste 0 -- -- 69
2019-11-11 22:00:00 6.3 25 Oeste 58 Oeste 0 -- -- 68
2019-11-11 21:00:00 6.5 23 Noroeste 68 Noroeste 0 -- -- 67
2019-11-11 20:00:00 6.9 27 Oeste 69 Noroeste 0 -- -- 69
2019-11-11 19:00:00 7.6 27 Oeste 70 Oeste 0 -- -- 70
2019-11-11 18:00:00 8.5 27 Oeste 69 Oeste 0 -- -- 71
2019-11-11 17:00:00 9.7 26 Oeste 68 Noroeste 0 -- -- 69
2019-11-11 16:00:00 10.4 27 Oeste 56 Noroeste 0 -- -- 65
2019-11-11 15:00:00 10.8 22 Noroeste 46 Oeste 0 -- -- 59
2019-11-11 14:00:00 11.1 9 Oeste 32 Oeste 0 -- -- 54
2019-11-11 13:00:00 10.6 10 Noroeste 40 Noroeste 0 -- -- 55
2019-11-11 12:00:00 10 10 Noroeste 36 Noroeste 0 -- -- 58
2019-11-11 11:00:00 9.3 9 Oeste 35 Oeste 0 -- -- 59
2019-11-11 10:00:00 7 15 Oeste 36 Noroeste 0 -- -- 66
2019-11-11 09:00:00 5.8 13 Oeste 32 Noroeste 0 -- -- 67
2019-11-11 08:00:00 5.3 12 Oeste 30 Oeste 0 -- -- 68
2019-11-11 07:00:00 5.1 12 Oeste 24 Noroeste 0 -- -- 67
2019-11-11 06:00:00 4.6 9 Oeste 32 Oeste 0 -- -- 69
2019-11-11 05:00:00 4.6 19 Oeste 40 Oeste 0 -- -- 67
2019-11-11 04:00:00 4.4 18 Oeste 42 Oeste 0 -- -- 68
2019-11-11 03:00:00 4.3 16 Oeste 50 Noroeste 0 -- -- 68
2019-11-11 02:00:00 4.3 12 Oeste 44 Oeste 0 -- -- 68
2019-11-11 01:00:00 4.5 23 Oeste 52 Oeste 0 -- -- 67
2019-11-11 00:00:00 4.4 20 Oeste 48 Oeste 0 -- -- 66
2019-11-10 23:00:00 4.5 18 Oeste 62 Oeste 0 -- -- 65
2019-11-10 22:00:00 4.4 29 Oeste 65 Noroeste 0 -- -- 67
2019-11-10 21:00:00 4.6 30 Oeste 63 Oeste 0 -- -- 67
2019-11-10 20:00:00 4.9 32 Oeste 66 Oeste 0 -- -- 67
2019-11-10 19:00:00 5.5 33 Oeste 65 Oeste 0 -- -- 68
2019-11-10 18:00:00 5.6 24 Noroeste 68 Oeste 0 -- -- 67
2019-11-10 17:00:00 7.6 23 Oeste 50 Norte 0 -- -- 58
2019-11-10 16:00:00 8 25 Noroeste 69 Oeste 0 -- -- 59
2019-11-10 15:00:00 8.3 32 Oeste 65 Oeste 0 -- -- 55
2019-11-10 14:00:00 8.1 30 Oeste 66 Oeste 0 -- -- 58
2019-11-10 13:00:00 8.6 25 Oeste 51 Noroeste 0 -- -- 56
2019-11-10 12:00:00 7.6 26 Oeste 72 Oeste 0 -- -- 58
2019-11-10 11:00:00 6.9 23 Oeste 59 Oeste 0 -- -- 61
2019-11-10 10:00:00 5.8 21 Oeste 73 Oeste 0 -- -- 66
2019-11-10 09:00:00 4.8 27 Oeste 66 Oeste 0 -- -- 70
2019-11-10 08:00:00 4.2 29 Oeste 70 Oeste 0 -- -- 74
2019-11-10 07:00:00 4.2 32 Oeste 69 Noroeste 0 -- -- 74
2019-11-10 06:00:00 4.3 31 Oeste 77 Oeste 0 -- -- 75
2019-11-10 05:00:00 4.6 39 Oeste 77 Oeste 0 -- -- 75
2019-11-10 04:00:00 4.7 22 Oeste 56 Noroeste 0 -- -- 78
2019-11-10 03:00:00 4.4 18 Oeste 47 Oeste 0 -- -- 82
2019-11-10 02:00:00 3.1 13 Oeste 53 Oeste 1.8 -- -- 87
2019-11-10 01:00:00 3.8 19 Noroeste 87 Noroeste 2.4 -- -- 88
2019-11-10 00:00:00 9.1 15 Sudoeste 39 Sudoeste 0 -- -- 65
2019-11-09 23:00:00 9.3 19 Sudoeste 45 Sur 0 -- -- 62
2019-11-09 22:00:00 9.5 5 Sudeste 19 Sudoeste 0 -- -- 61
2019-11-09 21:00:00 10 8 Oeste 19 Oeste 0 -- -- 59
2019-11-09 20:00:00 10.2 5 Sudoeste 27 Sur 0 -- -- 58
2019-11-09 19:00:00 10.1 3 Sudeste 30 Sur 0 -- -- 59
2019-11-09 18:00:00 10.9 7 Sudoeste 20 Sudoeste 0 -- -- 55
2019-11-09 17:00:00 11.1 6 Norte 19 Sudoeste 0 -- -- 55
2019-11-09 16:00:00 12.2 7 Sudoeste 22 Noroeste 0 -- -- 49
2019-11-09 15:00:00 12 5 Nordeste 30 Noroeste 0 -- -- 49
2019-11-09 14:00:00 11.7 13 Oeste 37 Oeste 0 -- -- 45
2019-11-09 13:00:00 12 12 Oeste 37 Noroeste 0 -- -- 49
2019-11-09 12:00:00 11.1 10 Oeste 27 Noroeste 0 -- -- 53
2019-11-09 11:00:00 9.6 11 Oeste 39 Sur 0 -- -- 56
2019-11-09 10:00:00 7.5 8 Oeste 24 Oeste 0 -- -- 63
2019-11-09 09:00:00 6.3 14 Oeste 25 Noroeste 0 -- -- 65
2019-11-09 08:00:00 5.5 9 Oeste 40 Noroeste 0 -- -- 67
2019-11-09 07:00:00 5.3 19 Oeste 41 Oeste 0 -- -- 67
2019-11-09 06:00:00 5.8 21 Oeste 53 Noroeste 0 -- -- 64
2019-11-09 05:00:00 5.7 22 Oeste 47 Oeste 0 -- -- 64
2019-11-09 04:00:00 5.9 22 Oeste 48 Oeste 0 -- -- 62
2019-11-09 03:00:00 6.4 27 Oeste 53 Oeste 0 -- -- 59
2019-11-09 02:00:00 6.7 25 Oeste 58 Oeste 0 -- -- 60
2019-11-09 01:00:00 6.9 21 Oeste 44 Noroeste 0 -- -- 61
2019-11-09 00:00:00 7.1 18 Oeste 45 Noroeste 0 -- -- 62
2019-11-08 23:00:00 6.4 14 Oeste 49 Oeste 0.2 -- -- 72
2019-11-08 22:00:00 6.3 24 Oeste 46 Noroeste 0.2 -- -- 76
2019-11-08 21:00:00 5.3 16 Oeste 38 Oeste 1 -- -- 85
2019-11-08 20:00:00 5.9 24 Oeste 51 Noroeste 0 -- -- 79
2019-11-08 19:00:00 6.6 15 Oeste 54 Noroeste 0 -- -- 74
2019-11-08 18:00:00 7.5 7 Oeste 57 Sudoeste 0 -- -- 60
2019-11-08 17:00:00 8.7 15 Oeste 59 Oeste 0 -- -- 53
2019-11-08 16:00:00 9.8 18 Oeste 62 Oeste 0 -- -- 45
2019-11-08 15:00:00 10.7 19 Oeste 60 Oeste 0 -- -- 41
2019-11-08 14:00:00 11 23 Oeste 69 Oeste 0 -- -- 40
2019-11-08 13:00:00 10.2 23 Oeste 64 Oeste 0 -- -- 44
2019-11-08 12:00:00 9.5 19 Oeste 44 Oeste 0 -- -- 48
2019-11-08 11:00:00 8.6 14 Oeste 46 Oeste 0 -- -- 51
2019-11-08 10:00:00 7.2 12 Oeste 29 Sudoeste 0 -- -- 55
2019-11-08 09:00:00 5.3 12 Oeste 31 Oeste 0 -- -- 59
2019-11-08 08:00:00 4.3 12 Sudoeste 37 Sur 0 -- -- 60
2019-11-08 07:00:00 4.2 12 Sudoeste 41 Sudoeste 0 -- -- 60
2019-11-08 06:00:00 4.4 18 Sudoeste 32 Sur 0 -- -- 60
2019-11-08 05:00:00 4.3 8 Oeste 53 Sudoeste 0 -- -- 59
2019-11-08 04:00:00 4.6 15 Oeste 31 Sudoeste 0 -- -- 59
2019-11-08 03:00:00 5.1 12 Oeste 31 Oeste 0 -- -- 61
2019-11-08 02:00:00 5.5 14 Oeste 43 Sudoeste 0 -- -- 63
2019-11-08 01:00:00 6.1 15 Sudoeste 39 Sudoeste 0 -- -- 62
2019-11-08 00:00:00 6 10 Oeste 36 Sudoeste 0 -- -- 63
2019-11-07 23:00:00 6.8 24 Sudoeste 56 Sudoeste 0 -- -- 58
2019-11-07 22:00:00 6.5 9 Oeste 37 Oeste 0 -- -- 62
2019-11-07 21:00:00 8.5 11 Noroeste 37 Sudoeste 0 -- -- 52
2019-11-07 20:00:00 8.2 9 Oeste 25 Oeste 0 -- -- 51
2019-11-07 19:00:00 8.5 10 Noroeste 21 Sudoeste 0 -- -- 51
2019-11-07 18:00:00 8.2 3 Oeste 6 Sudeste 0 -- -- 76
2019-11-07 17:00:00 10 6 Sudeste 17 Oeste 0 -- -- 70
2019-11-07 16:00:00 10.1 5 Sudeste 25 Oeste 0 -- -- 71
2019-11-07 15:00:00 8.7 6 Oeste 34 Norte 0 -- -- 79
2019-11-07 14:00:00 11.6 19 Noroeste 53 Oeste 0.2 -- -- 67
2019-11-07 13:00:00 10.2 27 Noroeste 48 Noroeste 0.2 -- -- 73
2019-11-07 12:00:00 11.3 14 Noroeste 30 Oeste 0.4 -- -- 75
2019-11-07 11:00:00 12.8 12 Noroeste 31 Oeste 0 -- -- 70
2019-11-07 10:00:00 12.8 5 Noroeste 17 Nordeste 0 -- -- 61
2019-11-07 09:00:00 12.1 3 Oeste 8 Nordeste 0 -- -- 61
2019-11-07 08:00:00 10 3 Este 11 Nordeste 0 -- -- 66
2019-11-07 07:00:00 10.5 7 Sudoeste 27 Sudoeste 0 -- -- 64
2019-11-07 06:00:00 9.8 9 Sudoeste 26 Sudoeste 0 -- -- 63
2019-11-07 05:00:00 9.1 3 Sur 18 Sudoeste 0 -- -- 63
2019-11-07 04:00:00 9.3 2 Sudeste 11 Sudeste 0 -- -- 60
2019-11-07 03:00:00 8.9 4 Este 11 Sudeste 0 -- -- 61
2019-11-07 02:00:00 8.3 6 Sudeste 19 Sudoeste 0 -- -- 62
2019-11-07 01:00:00 8.2 9 Este 15 Sur 0 -- -- 62
2019-11-07 00:00:00 8.6 8 Sur 26 Sudoeste 0 -- -- 61
2019-11-06 23:00:00 7.5 3 Sur 10 Sur 0 -- -- 67
2019-11-06 22:00:00 8.4 3 Sudeste 11 Sudeste 0 -- -- 63
2019-11-06 21:00:00 9.4 6 Sudoeste 11 Sudoeste 0 -- -- 59
2019-11-06 20:00:00 10.1 5 Sudeste 14 Norte 0 -- -- 56
2019-11-06 19:00:00 10.9 4 Oeste 15 Noroeste 0 -- -- 53
2019-11-06 18:00:00 11.8 2 Sudeste 20 Sudoeste 0 -- -- 50
2019-11-06 17:00:00 13.8 13 Noroeste 31 Noroeste 0 -- -- 45
2019-11-06 16:00:00 13.4 8 Noroeste 30 Noroeste 0 -- -- 48
2019-11-06 15:00:00 14.1 11 Noroeste 46 Noroeste 0 -- -- 46
2019-11-06 14:00:00 13.8 15 Noroeste 45 Oeste 0 -- -- 45
2019-11-06 13:00:00 13.2 17 Noroeste 46 Noroeste 0 -- -- 49
2019-11-06 12:00:00 12.3 11 Sudoeste 26 Oeste 0 -- -- 53
2019-11-06 11:00:00 11.4 8 Sur 33 Oeste 0 -- -- 55
2019-11-06 10:00:00 9.8 13 Noroeste 41 Noroeste 0 -- -- 60
2019-11-06 09:00:00 9 6 Oeste 16 Oeste 0 -- -- 63
2019-11-06 08:00:00 7.8 5 Oeste 24 Oeste 0 -- -- 66
2019-11-06 07:00:00 8.3 13 Oeste 28 Noroeste 0 -- -- 65
2019-11-06 06:00:00 8.5 11 Oeste 36 Noroeste 0 -- -- 65
2019-11-06 05:00:00 8.4 16 Oeste 42 Noroeste 0 -- -- 64
2019-11-06 04:00:00 8.1 10 Oeste 32 Oeste 0 -- -- 66
2019-11-06 03:00:00 8.3 10 Oeste 25 Oeste 0 -- -- 65
2019-11-06 02:00:00 8.6 7 Oeste 39 Sudoeste 0 -- -- 64
2019-11-06 01:00:00 8.4 11 Oeste 37 Noroeste 0 -- -- 65
2019-11-06 00:00:00 9 15 Oeste 45 Noroeste 0 -- -- 63
2019-11-05 23:00:00 9.2 17 Oeste 37 Oeste 0 -- -- 64
2019-11-05 22:00:00 9.1 10 Oeste 30 Noroeste 0 -- -- 66
2019-11-05 21:00:00 9.4 7 Oeste 44 Sudoeste 0 -- -- 64
2019-11-05 20:00:00 9.6 13 Oeste 32 Oeste 0 -- -- 63
2019-11-05 19:00:00 9.7 13 Oeste 46 Oeste 0 -- -- 62
2019-11-05 18:00:00 11.1 14 Oeste 35 Oeste 0 -- -- 52
2019-11-05 17:00:00 12.9 12 Oeste 27 Noroeste 0 -- -- 50
2019-11-05 16:00:00 13.3 13 Oeste 48 Sudoeste 0 -- -- 48
2019-11-05 15:00:00 13.2 13 Oeste 44 Sudoeste 0 -- -- 47
2019-11-05 14:00:00 12.8 31 Sudoeste 68 Sudoeste 0 -- -- 49
2019-11-05 13:00:00 13.4 16 Oeste 54 Sudoeste 0 -- -- 48
2019-11-05 12:00:00 12 21 Sudoeste 53 Sudoeste 0 -- -- 50
2019-11-05 11:00:00 11.5 17 Oeste 57 Sudoeste 0 -- -- 53
2019-11-05 10:00:00 10.3 17 Oeste 51 Sudoeste 0 -- -- 55
2019-11-05 09:00:00 9.3 36 Sudoeste 51 Sur 0 -- -- 60
2019-11-05 08:00:00 8.3 22 Sudoeste 35 Sudoeste 0 -- -- 66
2019-11-05 07:00:00 8 11 Oeste 22 Sur 0 -- -- 70
2019-11-05 06:00:00 8.3 4 Este 14 Noroeste 0 -- -- 71
2019-11-05 05:00:00 8.7 8 Oeste 22 Sur 0 -- -- 73
2019-11-05 04:00:00 9.1 4 Sudoeste 11 Noroeste 0 -- -- 73
2019-11-05 03:00:00 9.8 8 Oeste 29 Noroeste 0 -- -- 69
2019-11-05 02:00:00 10.3 11 Noroeste 27 Oeste 0.2 -- -- 72
2019-11-05 01:00:00 10.6 4 Norte 37 Oeste 0 -- -- 78
2019-11-05 00:00:00 10.7 17 Oeste 38 Noroeste 0.8 -- -- 82
2019-11-04 23:00:00 11.2 24 Noroeste 48 Sudeste 0.8 -- -- 84
2019-11-04 22:00:00 15.1 2 Oeste 23 Oeste 0 -- -- 56
2019-11-04 21:00:00 15 9 Oeste 30 Oeste 0 -- -- 55
2019-11-04 20:00:00 15.3 17 Sudoeste 37 Sudoeste 0 -- -- 53
2019-11-04 19:00:00 16.1 16 Sudoeste 42 Sur 0 -- -- 50
2019-11-04 18:00:00 16.8 19 Sudoeste 54 Sudoeste 0 -- -- 47
2019-11-04 17:00:00 17.7 27 Sudoeste 58 Sudoeste 0 -- -- 43
2019-11-04 16:00:00 18.8 36 Sudoeste 60 Sudoeste 0 -- -- 40
2019-11-04 15:00:00 19.5 27 Sudoeste 49 Oeste 0 -- -- 42
2019-11-04 14:00:00 19.4 25 Sudoeste 44 Sudoeste 0 -- -- 41
2019-11-04 13:00:00 18.2 26 Sudoeste 44 Sudoeste 0 -- -- 44
2019-11-04 12:00:00 19.2 18 Sudoeste 35 Sudoeste 0 -- -- 42
2019-11-04 11:00:00 17.6 24 Sudoeste 53 Oeste 0 -- -- 47
2019-11-04 10:00:00 16 31 Sudoeste 46 Sudoeste 0 -- -- 52
2019-11-04 09:00:00 15.5 14 Sudoeste 45 Sudoeste 0 -- -- 54
2019-11-04 08:00:00 14.2 13 Oeste 31 Oeste 0 -- -- 60
2019-11-04 07:00:00 14.1 5 Oeste 19 Oeste 0 -- -- 64
2019-11-04 06:00:00 14 6 Nordeste 26 Norte 0 -- -- 64
2019-11-04 05:00:00 14 12 Oeste 31 Sudoeste 0 -- -- 63
2019-11-04 04:00:00 14.1 18 Sudoeste 55 Sudoeste 0 -- -- 59
2019-11-04 03:00:00 14.9 35 Sudoeste 58 Sudoeste 0 -- -- 55
2019-11-04 02:00:00 15.2 21 Sudoeste 44 Oeste 0 -- -- 54
2019-11-04 01:00:00 14.4 13 Sudoeste 30 Oeste 0 -- -- 53
2019-11-04 00:00:00 13.9 18 Sudoeste 44 Sudoeste 0 -- -- 51
2019-11-03 23:00:00 13.7 20 Sudoeste 40 Sudoeste 0 -- -- 48
2019-11-03 22:00:00 13.2 21 Sudoeste 44 Sudoeste 0 -- -- 48
2019-11-03 21:00:00 12.6 7 Oeste 28 Noroeste 0 -- -- 50
2019-11-03 20:00:00 12.4 5 Oeste 18 Oeste 0 -- -- 51
2019-11-03 19:00:00 12.8 5 Sudoeste 31 Noroeste 0 -- -- 49
2019-11-03 18:00:00 13.5 15 Noroeste 46 Noroeste 0 -- -- 46
2019-11-03 17:00:00 15.2 16 Oeste 59 Oeste 0 -- -- 42
2019-11-03 16:00:00 16.4 14 Oeste 46 Oeste 0 -- -- 38
2019-11-03 15:00:00 16.4 18 Oeste 44 Noroeste 0 -- -- 39
2019-11-03 14:00:00 15.7 19 Oeste 62 Oeste 0 -- -- 42
2019-11-03 13:00:00 14.8 28 Oeste 80 Oeste 0 -- -- 41
2019-11-03 12:00:00 14.2 31 Noroeste 72 Oeste 0 -- -- 46
2019-11-03 11:00:00 11.4 16 Noroeste 44 Norte 0 -- -- 73
2019-11-03 10:00:00 9.3 17 Oeste 80 Sudoeste 1.2 -- -- 83
2019-11-03 09:00:00 16.4 31 Sudoeste 68 Sudoeste 0 -- -- 52
2019-11-03 08:00:00 16.1 41 Sudoeste 67 Sudoeste 0 -- -- 51
2019-11-03 07:00:00 15.1 12 Oeste 37 Oeste 0 -- -- 55
2019-11-03 06:00:00 15 28 Sudoeste 62 Sudoeste 0 -- -- 56
2019-11-03 05:00:00 14.7 25 Sudoeste 56 Sudoeste 0 -- -- 55
2019-11-03 04:00:00 14.9 16 Sudoeste 39 Oeste 0 -- -- 52
2019-11-03 03:00:00 15.3 22 Sudoeste 54 Sudoeste 0 -- -- 52
2019-11-03 02:00:00 15.9 17 Sudoeste 41 Sur 0 -- -- 51
2019-11-03 01:00:00 16.3 18 Sudoeste 42 Sudoeste 0 -- -- 54
2019-11-03 00:00:00 16.6 24 Sudoeste 44 Sudoeste 0 -- -- 56
2019-11-02 23:00:00 16.9 28 Sudoeste 41 Sudoeste 0 -- -- 57
2019-11-02 22:00:00 17 24 Sudoeste 38 Sudoeste 0 -- -- 56
2019-11-02 21:00:00 17.2 17 Sudoeste 37 Sudoeste 0 -- -- 56
2019-11-02 20:00:00 17.3 14 Sudoeste 26 Oeste 0 -- -- 57
2019-11-02 19:00:00 17.6 13 Sudoeste 30 Oeste 0 -- -- 56
2019-11-02 18:00:00 18.4 12 Oeste 29 Oeste 0 -- -- 51
2019-11-02 17:00:00 20 18 Sudoeste 42 Sudoeste 0 -- -- 46
2019-11-02 16:00:00 20.4 25 Sudoeste 44 Oeste 0 -- -- 46
2019-11-02 15:00:00 21 24 Sudoeste 37 Sudoeste 0 -- -- 44
2019-11-02 14:00:00 22.4 17 Sudoeste 51 Sur 0 -- -- 41
2019-11-02 13:00:00 21.6 19 Sudoeste 49 Sudoeste 0 -- -- 44
2019-11-02 12:00:00 20.3 28 Sudoeste 51 Sudoeste 0 -- -- 47
2019-11-02 11:00:00 19.6 23 Sudoeste 48 Sudoeste 0 -- -- 50
2019-11-02 10:00:00 18.7 28 Sudoeste 45 Sudoeste 0 -- -- 53
2019-11-02 09:00:00 16.8 28 Sudoeste 42 Sudoeste 0 -- -- 60
2019-11-02 08:00:00 16.5 19 Sudoeste 45 Sudoeste 0 -- -- 59
2019-11-02 07:00:00 16.8 33 Sudoeste 59 Oeste 0 -- -- 58
2019-11-02 06:00:00 16.6 32 Oeste 57 Sudoeste 0 -- -- 61
2019-11-02 05:00:00 16.5 23 Oeste 54 Sudoeste 0 -- -- 63
2019-11-02 04:00:00 16.8 33 Sudoeste 54 Sudoeste 0 -- -- 62
2019-11-02 03:00:00 17.1 27 Oeste 45 Sudoeste 0 -- -- 63
2019-11-02 02:00:00 17 15 Sudoeste 35 Sur 0 -- -- 66
2019-11-02 01:00:00 17.6 19 Sudoeste 41 Sudoeste 0.2 -- -- 63
2019-11-02 00:00:00 17.6 18 Sudoeste 43 Sudoeste 0 -- -- 64
2019-11-01 23:00:00 17.5 16 Sudoeste 35 Sudoeste 0 -- -- 67
2019-11-01 22:00:00 17.8 19 Sudoeste 33 Oeste 0 -- -- 69
2019-11-01 21:00:00 17 10 Sudoeste 20 Sudoeste 0 -- -- 75
2019-11-01 20:00:00 16.6 0 Calma 4 Este 0 -- -- 82
2019-11-01 19:00:00 16.8 0 Calma 19 Noroeste 0.2 -- -- 80
2019-11-01 18:00:00 17.5 9 Noroeste 22 Noroeste 0.4 -- -- 78
2019-11-01 17:00:00 20.6 6 Sudoeste 17 Noroeste 0 -- -- 56
2019-11-01 16:00:00 21.1 9 Sudoeste 32 Oeste 0 -- -- 54
2019-11-01 15:00:00 21.3 16 Oeste 34 Oeste 0 -- -- 51
2019-11-01 14:00:00 21.9 10 Sudoeste 40 Sudoeste 0 -- -- 53
2019-11-01 13:00:00 20.7 5 Noroeste 23 Noroeste 0 -- -- 57
2019-11-01 12:00:00 20.1 9 Oeste 34 Noroeste 0 -- -- 59
2019-11-01 11:00:00 18.8 12 Oeste 33 Sudoeste 0 -- -- 64
2019-11-01 10:00:00 18.3 12 Oeste 33 Sur 0 -- -- 67
2019-11-01 09:00:00 17 9 Oeste 41 Oeste 0 -- -- 71
2019-11-01 08:00:00 16.2 19 Oeste 34 Oeste 0 -- -- 71
2019-11-01 07:00:00 15.9 5 Oeste 23 Oeste 0 -- -- 71
2019-11-01 06:00:00 16 6 Oeste 30 Sudoeste 0 -- -- 71
2019-11-01 05:00:00 16.2 13 Oeste 29 Oeste 0 -- -- 69
2019-11-01 04:00:00 15.7 9 Oeste 19 Noroeste 0 -- -- 72
2019-11-01 03:00:00 15.1 9 Oeste 23 Sudoeste 0 -- -- 74
2019-11-01 02:00:00 14.4 8 Oeste 12 Oeste 0 -- -- 77
2019-11-01 01:00:00 13.3 3 Este 9 Este 0 -- -- 77
2019-11-01 00:00:00 13.9 4 Oeste 8 Oeste 0 -- -- 74
2019-10-31 23:00:00 14.5 2 Oeste 16 Oeste 0 -- -- 71
2019-10-31 22:00:00 14.7 4 Este 18 Noroeste 0 -- -- 70
2019-10-31 21:00:00 15.1 4 Sudoeste 13 Sudoeste 0 -- -- 69
2019-10-31 20:00:00 15.5 9 Oeste 27 Oeste 0 -- -- 67
2019-10-31 19:00:00 15.9 11 Oeste 29 Noroeste 0 -- -- 67
2019-10-31 18:00:00 16.6 11 Noroeste 37 Noroeste 0 -- -- 66
2019-10-31 17:00:00 18.3 7 Sudoeste 39 Oeste 0 -- -- 61
2019-10-31 16:00:00 19.2 27 Noroeste 46 Noroeste 0 -- -- 57
2019-10-31 15:00:00 18.6 17 Sudoeste 47 Noroeste 0 -- -- 59
2019-10-31 14:00:00 19.1 23 Noroeste 41 Noroeste 0 -- -- 56
2019-10-31 13:00:00 18.5 17 Noroeste 39 Oeste 0 -- -- 60
2019-10-31 12:00:00 17.2 15 Oeste 41 Oeste 0 -- -- 66
2019-10-31 11:00:00 15.3 8 Sudoeste 27 Norte 0 -- -- 75
2019-10-31 10:00:00 14.9 13 Oeste 30 Oeste 0 -- -- 77
2019-10-31 09:00:00 15.9 7 Noroeste 22 Noroeste 0 -- -- 72
2019-10-31 08:00:00 15.4 8 Oeste 21 Oeste 0 -- -- 73
2019-10-31 07:00:00 15.4 9 Oeste 27 Noroeste 0 -- -- 74
2019-10-31 06:00:00 15.7 6 Oeste 31 Oeste 0 -- -- 72
2019-10-31 05:00:00 15.9 17 Oeste 33 Oeste 0 -- -- 69
2019-10-31 04:00:00 15.6 3 Sudeste 12 Nordeste 0 -- -- 70
2019-10-31 03:00:00 16 3 Sur 9 Nordeste 0 -- -- 69
2019-10-31 02:00:00 16 5 Noroeste 23 Sur 0 -- -- 68
2019-10-31 01:00:00 15.9 8 Sudoeste 24 Sudoeste 0 -- -- 66
2019-10-31 00:00:00 16.2 7 Sudoeste 15 Sudoeste 0 -- -- 63
2019-10-30 23:00:00 17 8 Sudoeste 22 Sur 0 -- -- 61
2019-10-30 22:00:00 17.3 4 Sudoeste 10 Sudoeste 0 -- -- 60
2019-10-30 21:00:00 17.5 6 Oeste 14 Oeste 0 -- -- 61
2019-10-30 20:00:00 16.8 6 Noroeste 12 Noroeste 0 -- -- 66
2019-10-30 19:00:00 16.8 9 Noroeste 12 Noroeste 0 -- -- 65
2019-10-30 18:00:00 17.6 0 Calma 8 Norte 0 -- -- 63
2019-10-30 17:00:00 18.7 4 Norte 16 Oeste 0 -- -- 59
2019-10-30 16:00:00 19.6 5 Noroeste 18 Noroeste 0 -- -- 55
2019-10-30 15:00:00 19.4 5 Noroeste 24 Noroeste 0 -- -- 55
2019-10-30 14:00:00 20 9 Oeste 22 Oeste 0 -- -- 54
2019-10-30 13:00:00 21 13 Oeste 24 Oeste 0 -- -- 50
2019-10-30 12:00:00 20.4 6 Sur 18 Norte 0 -- -- 51
2019-10-30 11:00:00 18.5 6 Sudeste 14 Sudeste 0 -- -- 58
2019-10-30 10:00:00 14.8 4 Este 9 Este 0 -- -- 71
2019-10-30 09:00:00 12.1 8 Este 10 Este 0 -- -- 80
2019-10-30 08:00:00 11 3 Este 7 Este 0 -- -- 84
2019-10-30 07:00:00 11.3 3 Sudeste 5 Este 0 -- -- 84
2019-10-30 06:00:00 11.8 2 Este 6 Este 0 -- -- 82
2019-10-30 05:00:00 12.6 3 Sudoeste 12 Oeste 0 -- -- 79
2019-10-30 04:00:00 12.3 2 Este 8 Oeste 0 -- -- 83
2019-10-30 03:00:00 12.3 5 Este 8 Este 0 -- -- 84
2019-10-30 02:00:00 13 2 Sudeste 5 Sur 0 -- -- 83
2019-10-30 01:00:00 13.3 2 Sur 8 Este 0 -- -- 82
2019-10-30 00:00:00 13.4 3 Este 9 Nordeste 0 -- -- 83
2019-10-29 23:00:00 13.5 6 Este 8 Este 0 -- -- 83
2019-10-29 22:00:00 14 4 Este 6 Sudeste 0 -- -- 81
2019-10-29 21:00:00 15.3 3 Este 6 Sudeste 0 -- -- 76
2019-10-29 20:00:00 15.6 2 Sudeste 7 Sudeste 0 -- -- 75
2019-10-29 19:00:00 16.5 4 Oeste 6 Oeste 0 -- -- 71
2019-10-29 18:00:00 17.7 0 Calma 13 Norte 0 -- -- 66
2019-10-29 17:00:00 19.5 4 Este 20 Este 0 -- -- 61
2019-10-29 16:00:00 20.3 5 Nordeste 23 Nordeste 0 -- -- 58
2019-10-29 15:00:00 20.7 9 Este 26 Este 0 -- -- 57
2019-10-29 14:00:00 21.1 9 Este 20 Nordeste 0 -- -- 53
2019-10-29 13:00:00 21.2 7 Este 16 Este 0 -- -- 51
2019-10-29 12:00:00 20.5 6 Este 12 Este 0 -- -- 53
2019-10-29 11:00:00 18.7 5 Este 10 Este 0 -- -- 56
2019-10-29 10:00:00 15.7 8 Este 11 Este 0 -- -- 64
2019-10-29 09:00:00 13 5 Este 10 Este 0 -- -- 70
2019-10-29 08:00:00 12.2 3 Este 9 Este 0 -- -- 71
2019-10-29 07:00:00 11.9 5 Este 8 Nordeste 0 -- -- 72
2019-10-29 06:00:00 11.4 4 Este 10 Sudeste 0 -- -- 74
2019-10-29 05:00:00 11.6 6 Este 9 Este 0 -- -- 74
2019-10-29 04:00:00 11.7 4 Nordeste 9 Este 0 -- -- 74
2019-10-29 03:00:00 12 9 Este 13 Este 0 -- -- 72
2019-10-29 02:00:00 12.4 8 Este 10 Este 0 -- -- 73
2019-10-29 01:00:00 12.5 7 Este 12 Este 0 -- -- 73
2019-10-29 00:00:00 12.5 6 Este 9 Nordeste 0 -- -- 78
2019-10-28 23:00:00 12.8 5 Este 9 Este 0 -- -- 78
2019-10-28 22:00:00 13.1 5 Este 8 Este 0 -- -- 79
2019-10-28 21:00:00 14.2 4 Este 6 Este 0 -- -- 76
2019-10-28 20:00:00 15 4 Sudeste 5 Sur 0 -- -- 72
2019-10-28 19:00:00 15.8 3 Sudoeste 6 Oeste 0 -- -- 68
2019-10-28 18:00:00 17.1 0 Calma 8 Norte 0 -- -- 62
2019-10-28 17:00:00 17.7 7 Norte 16 Norte 0 -- -- 62
2019-10-28 16:00:00 18.7 6 Nordeste 17 Norte 0 -- -- 61
2019-10-28 15:00:00 18.8 3 Noroeste 7 Norte 0 -- -- 59
2019-10-28 14:00:00 18.6 0 Calma 5 Este 0 -- -- 58
2019-10-28 13:00:00 18.6 0 Calma 5 Este 0 -- -- 61
2019-10-28 12:00:00 17 3 Este 6 Nordeste 0 -- -- 66
2019-10-28 11:00:00 15.8 2 Nordeste 9 Este 0 -- -- 69
2019-10-28 10:00:00 14.8 5 Este 9 Este 0 -- -- 71
2019-10-28 09:00:00 14.2 4 Este 10 Este 0 -- -- 73
2019-10-28 08:00:00 13.4 5 Este 9 Este 0 -- -- 74
2019-10-28 07:00:00 13.4 2 Este 5 Nordeste 0 -- -- 75
2019-10-28 06:00:00 13.3 3 Nordeste 6 Este 0 -- -- 76
2019-10-28 05:00:00 13.4 3 Este 6 Nordeste 0 -- -- 76
2019-10-28 04:00:00 13.7 4 Este 6 Este 0 -- -- 75
2019-10-28 03:00:00 13.7 0 Calma 5 Este 0 -- -- 75
2019-10-28 02:00:00 13.6 5 Este 9 Este 0 -- -- 76
2019-10-28 01:00:00 13.6 3 Este 8 Este 0 -- -- 76
2019-10-28 00:00:00 13.3 5 Este 10 Este 0 -- -- 79
2019-10-27 23:00:00 13 3 Sudeste 9 Este 0 -- -- 83
2019-10-27 22:00:00 14.1 0 Calma 5 Sudeste 0 -- -- 82
2019-10-27 21:00:00 14.8 4 Este 8 Este 0 -- -- 80
2019-10-27 20:00:00 15.6 0 Calma 8 Oeste 0 -- -- 76
2019-10-27 19:00:00 16.1 5 Oeste 7 Norte 0 -- -- 72
2019-10-27 18:00:00 18.2 6 Norte 14 Norte 0 -- -- 61
2019-10-27 17:00:00 20.5 5 Norte 14 Nordeste 0 -- -- 55
2019-10-27 16:00:00 20.7 6 Norte 17 Nordeste 0 -- -- 55
2019-10-27 15:00:00 19.8 7 Norte 17 Norte 0 -- -- 56
2019-10-27 14:00:00 21 8 Este 20 Este 0 -- -- 47
2019-10-27 13:00:00 21.3 5 Norte 14 Norte 0 -- -- 48
2019-10-27 12:00:00 19.6 4 Este 9 Este 0 -- -- 48
2019-10-27 11:00:00 17.1 6 Este 10 Nordeste 0 -- -- 57
2019-10-27 10:00:00 14.9 4 Este 8 Este 0 -- -- 65
2019-10-27 09:00:00 12.5 4 Este 6 Este 0 -- -- 73
2019-10-27 08:00:00 9.9 3 Este 9 Este 0 -- -- 80
2019-10-27 07:00:00 9 7 Este 13 Este 0 -- -- 85
2019-10-27 06:00:00 9.7 6 Este 9 Nordeste 0 -- -- 84
2019-10-27 05:00:00 10.9 4 Oeste 6 Oeste 0 -- -- 80
2019-10-27 04:00:00 11.1 3 Sudeste 5 Este 0 -- -- 82
2019-10-27 03:00:00 11.1 4 Este 9 Este 0 -- -- 84
2019-10-27 02:00:00 11.6 8 Nordeste 12 Este 0 -- -- 82
2019-10-27 01:00:00 11.9 6 Este 10 Este 0 -- -- 86
2019-10-27 00:00:00 12.7 4 Sudeste 8 Sudeste 0 -- -- 85
2019-10-26 23:00:00 14.2 4 Sudeste 12 Sur 0 -- -- 83
2019-10-26 22:00:00 15 3 Sur 13 Este 0 -- -- 82
2019-10-26 21:00:00 15.6 8 Este 13 Este 0 -- -- 80
2019-10-26 20:00:00 16.9 5 Este 14 Norte 0 -- -- 68
2019-10-26 19:00:00 17.9 10 Norte 15 Nordeste 0 -- -- 62
2019-10-26 18:00:00 19.4 6 Nordeste 22 Norte 0 -- -- 58
2019-10-26 17:00:00 20.7 10 Norte 23 Nordeste 0 -- -- 53
2019-10-26 16:00:00 22 6 Norte 21 Norte 0 -- -- 47
2019-10-26 15:00:00 22 6 Nordeste 18 Nordeste 0 -- -- 46
2019-10-26 14:00:00 21.7 7 Norte 16 Norte 0 -- -- 44
2019-10-26 13:00:00 20.6 4 Este 9 Este 0 -- -- 49
2019-10-26 12:00:00 18 4 Este 9 Nordeste 0 -- -- 55
2019-10-26 11:00:00 15.7 5 Este 8 Nordeste 0 -- -- 62
2019-10-26 10:00:00 12.1 7 Este 11 Este 0 -- -- 70
2019-10-26 09:00:00 9.9 10 Este 14 Este 0 -- -- 78
2019-10-26 08:00:00 9.4 4 Este 8 Este 0 -- -- 79
2019-10-26 07:00:00 10 4 Este 10 Nordeste 0 -- -- 76
2019-10-26 06:00:00 10.4 5 Este 6 Este 0 -- -- 75
2019-10-26 05:00:00 10.9 5 Nordeste 9 Este 0 -- -- 73
2019-10-26 04:00:00 11 7 Este 11 Este 0 -- -- 74
2019-10-26 03:00:00 11.1 8 Este 10 Este 0 -- -- 76
2019-10-26 02:00:00 11.8 6 Este 9 Este 0 -- -- 74
2019-10-26 01:00:00 12.1 6 Este 9 Este 0 -- -- 76
2019-10-26 00:00:00 12.9 3 Este 9 Sudeste 0 -- -- 75
2019-10-25 23:00:00 14.1 3 Nordeste 6 Este 0 -- -- 73
2019-10-25 22:00:00 14.9 0 Calma 6 Este 0 -- -- 70
2019-10-25 21:00:00 16.4 2 Este 8 Oeste 0 -- -- 67
2019-10-25 20:00:00 17.1 3 Oeste 7 Norte 0 -- -- 65
2019-10-25 19:00:00 19.1 4 Este 13 Este 0 -- -- 58
2019-10-25 18:00:00 20.9 6 Este 13 Este 0 -- -- 53
2019-10-25 17:00:00 21.3 5 Nordeste 15 Norte 0 -- -- 50
2019-10-25 16:00:00 21 7 Nordeste 24 Este 0 -- -- 50
2019-10-25 15:00:00 20.3 17 Este 25 Este 0 -- -- 52
2019-10-25 14:00:00 20.1 5 Norte 18 Oeste 0 -- -- 51
2019-10-25 13:00:00 19.3 6 Oeste 22 Norte 0 -- -- 51
2019-10-25 12:00:00 17.7 9 Noroeste 21 Noroeste 0 -- -- 55
2019-10-25 11:00:00 15.5 2 Sudoeste 15 Oeste 0 -- -- 65
2019-10-25 10:00:00 12.5 4 Este 10 Este 0 -- -- 72
2019-10-25 09:00:00 10.5 3 Sudoeste 13 Oeste 0 -- -- 78
2019-10-25 08:00:00 11.5 8 Oeste 19 Sudoeste 0 -- -- 74
2019-10-25 07:00:00 11.3 13 Oeste 20 Oeste 0 -- -- 75
2019-10-25 06:00:00 10.9 0 Calma 5 Sudoeste 0 -- -- 75
2019-10-25 05:00:00 10.8 3 Sudeste 10 Sudeste 0 -- -- 75
2019-10-25 04:00:00 10.5 4 Sudeste 14 Este 0 -- -- 77
2019-10-25 03:00:00 10.8 4 Este 15 Sur 0 -- -- 76
2019-10-25 02:00:00 11.4 6 Sudeste 14 Noroeste 0 -- -- 73
2019-10-25 01:00:00 11.7 3 Sudoeste 21 Oeste 0 -- -- 72
2019-10-25 00:00:00 11.9 8 Oeste 28 Oeste 0 -- -- 70
2019-10-24 23:00:00 12.1 6 Oeste 22 Noroeste 0 -- -- 69
2019-10-24 22:00:00 12.8 9 Oeste 22 Noroeste 0 -- -- 63
2019-10-24 21:00:00 12.8 8 Oeste 18 Oeste 0 -- -- 60
2019-10-24 20:00:00 13.3 6 Oeste 20 Oeste 0 -- -- 58
2019-10-24 19:00:00 14.1 12 Noroeste 33 Noroeste 0 -- -- 52
2019-10-24 18:00:00 15.5 11 Noroeste 39 Noroeste 0 -- -- 50
2019-10-24 17:00:00 15.7 9 Oeste 32 Noroeste 0 -- -- 53
2019-10-24 16:00:00 15.1 9 Oeste 33 Norte 0 -- -- 53
2019-10-24 15:00:00 14 9 Oeste 30 Noroeste 0 -- -- 57
2019-10-24 14:00:00 12.6 10 Oeste 30 Noroeste 0 -- -- 61
2019-10-24 13:00:00 11.1 6 Sudoeste 21 Oeste 0 -- -- 70
2019-10-24 12:00:00 11.5 10 Noroeste 24 Noroeste 0 -- -- 70
2019-10-24 11:00:00 9.7 8 Noroeste 24 Noroeste 0 -- -- 77
2019-10-24 10:00:00 7.8 4 Este 8 Oeste 0 -- -- 83
2019-10-24 09:00:00 7.2 0 Calma 17 Oeste 0 -- -- 83
2019-10-24 08:00:00 8.1 5 Oeste 15 Oeste 0 -- -- 79
2019-10-24 07:00:00 6.9 3 Noroeste 9 Este 0 -- -- 82
2019-10-24 06:00:00 6.5 6 Este 9 Noroeste 0 -- -- 80
2019-10-24 05:00:00 7.6 5 Oeste 18 Oeste 0 -- -- 75
2019-10-24 04:00:00 8.1 14 Oeste 25 Noroeste 0 -- -- 72
2019-10-24 03:00:00 8.2 10 Noroeste 28 Noroeste 0 -- -- 71
2019-10-24 02:00:00 7.9 2 Oeste 8 Sudeste 0 -- -- 75
2019-10-24 01:00:00 8.2 4 Sudeste 15 Sur 0 -- -- 75
2019-10-24 00:00:00 9.5 7 Sudoeste 20 Noroeste 0 -- -- 69
2019-10-23 23:00:00 9.7 4 Este 9 Este 0 -- -- 71
2019-10-23 22:00:00 10.5 8 Sudoeste 18 Oeste 0 -- -- 68
2019-10-23 21:00:00 10.1 5 Oeste 7 Oeste 0 -- -- 88
2019-10-23 20:00:00 10.2 4 Este 6 Este 0 -- -- 90
2019-10-23 19:00:00 11 2 Sudoeste 12 Este 0 -- -- 88
2019-10-23 18:00:00 11 5 Este 8 Este 0.4 -- -- 86
2019-10-23 17:00:00 11.4 5 Nordeste 15 Oeste 0.2 -- -- 80
2019-10-23 16:00:00 12.6 4 Sudeste 15 Este 0 -- -- 75
2019-10-23 15:00:00 12.6 7 Nordeste 23 Este 0 -- -- 71
2019-10-23 14:00:00 13.3 9 Este 21 Este 0 -- -- 68
2019-10-23 13:00:00 13.6 8 Sudeste 15 Sudoeste 0 -- -- 69
2019-10-23 12:00:00 10 6 Sudoeste 11 Este 0 -- -- 88
2019-10-23 11:00:00 10 5 Noroeste 16 Norte 0 -- -- 86
2019-10-23 10:00:00 9.2 6 Este 18 Sudoeste 0 -- -- 88
2019-10-23 09:00:00 6.9 4 Sur 10 Sudeste 0 -- -- 97
2019-10-23 08:00:00 6.7 4 Sur 9 Sur 0.2 -- -- 96
2019-10-23 07:00:00 7.2 3 Sudeste 10 Sur 0 -- -- 96
2019-10-23 06:00:00 7.5 3 Este 6 Sur 0 -- -- 96
2019-10-23 05:00:00 7.5 3 Sur 10 Sur 0.2 -- -- 96
2019-10-23 04:00:00 7.6 4 Sudeste 10 Sur 0.6 -- -- 96
2019-10-23 03:00:00 7.6 3 Oeste 9 Oeste 1.6 -- -- 95
2019-10-23 02:00:00 7.7 2 Sudeste 17 Noroeste 0 -- -- 95
2019-10-23 01:00:00 7.5 5 Noroeste 29 Sudoeste 0.2 -- -- 95
2019-10-23 00:00:00 7.7 4 Norte 29 Oeste 0 -- -- 94
2019-10-22 23:00:00 7.9 0 Calma 22 Este 0 -- -- 92
2019-10-22 22:00:00 7.8 4 Sudeste 10 Sudoeste 0.2 -- -- 93
2019-10-22 21:00:00 7.8 8 Sudoeste 22 Sudoeste 0 -- -- 91
2019-10-22 20:00:00 7.7 4 Este 17 Este 0 -- -- 92
2019-10-22 19:00:00 7.8 6 Sudeste 14 Sudoeste 0 -- -- 90
2019-10-22 18:00:00 7.7 4 Sur 25 Norte 1.2 -- -- 92
2019-10-22 17:00:00 7.5 7 Este 24 Noroeste 2.2 -- -- 92
2019-10-22 16:00:00 7.3 6 Sudeste 39 Noroeste 5.4 -- -- 92
2019-10-22 15:00:00 7.5 22 Oeste 43 Noroeste 1.6 -- -- 93
2019-10-22 14:00:00 8.1 6 Este 31 Oeste 9.4 -- -- 93
2019-10-22 13:00:00 8.7 8 Oeste 30 Oeste 6.2 -- -- 90
2019-10-22 12:00:00 8.9 12 Oeste 29 Oeste 5 -- -- 91
2019-10-22 11:00:00 8.4 9 Oeste 16 Noroeste 2.8 -- -- 96
2019-10-22 10:00:00 8 5 Sudoeste 15 Sur 2.8 -- -- 95
2019-10-22 09:00:00 7.7 2 Sur 16 Oeste 1.4 -- -- 94
2019-10-22 08:00:00 7.6 2 Oeste 12 Noroeste 2.2 -- -- 93
2019-10-22 07:00:00 8.2 3 Norte 10 Oeste 0.6 -- -- 90
2019-10-22 06:00:00 8.3 4 Nordeste 11 Este 0 -- -- 84
2019-10-22 05:00:00 8.1 3 Este 8 Este 0 -- -- 85
2019-10-22 04:00:00 8 3 Sudoeste 6 Noroeste 0 -- -- 87
2019-10-22 03:00:00 8.4 0 Calma 4 Nordeste 0 -- -- 86
2019-10-22 02:00:00 8.8 0 Calma 3 Sur 0 -- -- 85
2019-10-22 01:00:00 8.9 2 Sudoeste 6 Sudeste 0 -- -- 86
2019-10-22 00:00:00 9.5 0 Calma 6 Este 0 -- -- 82
2019-10-21 23:00:00 10.1 3 Nordeste 8 Noroeste 0 -- -- 76
2019-10-21 22:00:00 10.7 2 Sur 6 Norte 0 -- -- 76
2019-10-21 21:00:00 11.2 3 Sudeste 9 Sudeste 0 -- -- 73
2019-10-21 20:00:00 11.5 2 Sudeste 14 Este 0 -- -- 68
2019-10-21 19:00:00 11.6 6 Nordeste 19 Norte 0 -- -- 68
2019-10-21 18:00:00 12.5 8 Este 22 Este 0 -- -- 65
2019-10-21 17:00:00 13.7 10 Este 26 Este 0 -- -- 58
2019-10-21 16:00:00 14.7 5 Nordeste 17 Este 0 -- -- 52
2019-10-21 15:00:00 14.1 4 Noroeste 17 Noroeste 0 -- -- 52
2019-10-21 14:00:00 13.7 8 Norte 22 Este 0 -- -- 54
2019-10-21 13:00:00 13 4 Sur 17 Este 0 -- -- 58
2019-10-21 12:00:00 11 8 Este 15 Este 0 -- -- 64
2019-10-21 11:00:00 9.7 9 Este 14 Este 0 -- -- 70
2019-10-21 10:00:00 7.4 3 Este 5 Nordeste 0 -- -- 80
2019-10-21 09:00:00 6.2 0 Calma 8 Oeste 0 -- -- 84
2019-10-21 08:00:00 6.4 4 Este 5 Este 0 -- -- 84
2019-10-21 07:00:00 6.4 0 Calma 5 Sudeste 0 -- -- 86
2019-10-21 06:00:00 6.8 0 Calma 3 Nordeste 0 -- -- 86
2019-10-21 05:00:00 6.6 0 Calma 8 Oeste 0 -- -- 85
2019-10-21 04:00:00 7.2 4 Oeste 8 Oeste 0 -- -- 83
2019-10-21 03:00:00 7.8 2 Oeste 15 Nordeste 0 -- -- 78
2019-10-21 02:00:00 8.6 4 Norte 19 Nordeste 0 -- -- 76
2019-10-21 01:00:00 9.6 6 Nordeste 14 Nordeste 0 -- -- 66
2019-10-21 00:00:00 10.3 2 Este 10 Oeste 0 -- -- 62
2019-10-20 23:00:00 11.4 8 Noroeste 14 Noroeste 0 -- -- 57
2019-10-20 22:00:00 12.4 8 Oeste 18 Norte 0 -- -- 54
2019-10-20 21:00:00 13.1 8 Oeste 32 Sudoeste 0 -- -- 50
2019-10-20 20:00:00 13.9 18 Sudoeste 27 Sudoeste 0 -- -- 49
2019-10-20 19:00:00 14.8 6 Sudoeste 13 Sudoeste 0 -- -- 42
2019-10-20 18:00:00 15.5 12 Sudoeste 24 Sudoeste 0 -- -- 41
2019-10-20 17:00:00 15.7 13 Sudoeste 23 Sudoeste 0 -- -- 42
2019-10-20 16:00:00 16.1 12 Sudoeste 23 Sudoeste 0 -- -- 40
2019-10-20 15:00:00 15.6 10 Sudoeste 22 Oeste 0 -- -- 45
2019-10-20 14:00:00 15.5 14 Sudoeste 30 Sudoeste 0 -- -- 44
2019-10-20 13:00:00 14.9 18 Sudoeste 31 Sudoeste 0 -- -- 45
2019-10-20 12:00:00 15 21 Oeste 36 Oeste 0 -- -- 47
2019-10-20 11:00:00 15.9 10 Sur 31 Oeste 0 -- -- 46
2019-10-20 10:00:00 15.8 13 Sur 47 Sur 0 -- -- 45
2019-10-20 09:00:00 16.5 22 Sudoeste 39 Sur 0 -- -- 48
2019-10-20 08:00:00 16 5 Este 35 Sudoeste 0 -- -- 64
2019-10-20 07:00:00 15.9 4 Oeste 9 Sur 0 -- -- 66
2019-10-20 06:00:00 16 5 Sur 15 Sudeste 0 -- -- 65
2019-10-20 05:00:00 16.3 6 Sudeste 16 Este 0 -- -- 64
2019-10-20 04:00:00 16 10 Sudoeste 18 Este 0 -- -- 65
2019-10-20 03:00:00 16.5 2 Sudeste 15 Este 0 -- -- 61
2019-10-20 02:00:00 16.4 2 Sudeste 21 Este 0 -- -- 60
2019-10-20 01:00:00 15.7 8 Sudoeste 14 Sudoeste 0 -- -- 65
2019-10-20 00:00:00 15.8 7 Este 15 Este 0 -- -- 69
2019-10-19 23:00:00 16.2 6 Sudeste 19 Este 0 -- -- 66
2019-10-19 22:00:00 16.9 14 Este 22 Este 0 -- -- 58
2019-10-19 21:00:00 17.6 4 Sudoeste 16 Sudoeste 0 -- -- 49
2019-10-19 20:00:00 18.6 9 Sudoeste 28 Sudoeste 0 -- -- 48
2019-10-19 19:00:00 19.7 14 Sur 50 Sudoeste 0 -- -- 44
2019-10-19 18:00:00 21.4 22 Sudoeste 40 Sudoeste 0 -- -- 40
2019-10-19 17:00:00 21.1 22 Sudoeste 41 Sudoeste 0 -- -- 41
2019-10-19 16:00:00 21.4 21 Sudoeste 37 Sur 0 -- -- 40
2019-10-19 15:00:00 22.2 23 Sudoeste 39 Sudoeste 0 -- -- 38
2019-10-19 14:00:00 22.4 23 Sudoeste 39 Sudoeste 0 -- -- 37
2019-10-19 13:00:00 22.2 18 Sur 30 Sur 0 -- -- 39
2019-10-19 12:00:00 20.8 14 Sur 26 Sudoeste 0 -- -- 45
2019-10-19 11:00:00 18.1 5 Sudeste 12 Este 0 -- -- 57
2019-10-19 10:00:00 14.3 3 Este 8 Este 0 -- -- 69
2019-10-19 09:00:00 14.9 0 Calma 7 Sur 0 -- -- 65
2019-10-19 08:00:00 14.9 3 Sudoeste 7 Sudoeste 0 -- -- 67
2019-10-19 07:00:00 14.5 0 Calma 6 Sur 0 -- -- 65
2019-10-19 06:00:00 14.9 3 Oeste 6 Sur 0 -- -- 63
2019-10-19 05:00:00 14.5 3 Nordeste 10 Norte 0 -- -- 67
2019-10-19 04:00:00 15.8 3 Nordeste 9 Nordeste 0 -- -- 62
2019-10-19 03:00:00 16.1 3 Este 14 Sudeste 0 -- -- 63
2019-10-19 02:00:00 16.3 2 Este 19 Sudoeste 0 -- -- 63
2019-10-19 01:00:00 16 5 Sudoeste 16 Sudoeste 0 -- -- 66
2019-10-19 00:00:00 15.7 2 Este 6 Nordeste 0 -- -- 71
2019-10-18 23:00:00 16.7 0 Calma 4 Nordeste 0 -- -- 69
2019-10-18 22:00:00 17 3 Sur 5 Sudoeste 0 -- -- 67
2019-10-18 21:00:00 17.4 2 Oeste 15 Norte 0 -- -- 66
2019-10-18 20:00:00 18.4 7 Norte 21 Nordeste 0 -- -- 63
2019-10-18 19:00:00 19.5 11 Nordeste 26 Nordeste 0 -- -- 58
2019-10-18 18:00:00 22.5 9 Oeste 33 Oeste 0 -- -- 48
2019-10-18 17:00:00 23.1 10 Sudoeste 26 Sudoeste 0 -- -- 43
2019-10-18 16:00:00 22.7 17 Sudoeste 29 Sudoeste 0 -- -- 43
2019-10-18 15:00:00 23.7 4 Oeste 14 Oeste 0 -- -- 46
2019-10-18 14:00:00 21.5 8 Norte 14 Norte 0 -- -- 51
2019-10-18 13:00:00 21.2 4 Noroeste 12 Este 0 -- -- 51
2019-10-18 12:00:00 21.4 5 Sudeste 12 Este 0 -- -- 51
2019-10-18 11:00:00 17.6 3 Sudoeste 5 Sur 0 -- -- 61
2019-10-18 10:00:00 14.5 4 Oeste 12 Este 0 -- -- 68
2019-10-18 09:00:00 14.3 3 Este 10 Nordeste 0 -- -- 68
2019-10-18 08:00:00 14.3 3 Oeste 6 Oeste 0 -- -- 70
2019-10-18 07:00:00 14.8 3 Sudoeste 9 Este 0 -- -- 66
2019-10-18 06:00:00 15.8 5 Sudeste 13 Sudoeste 0 -- -- 65
2019-10-18 05:00:00 14.9 9 Sudoeste 17 Sur 0 -- -- 67
2019-10-18 04:00:00 14.3 6 Sudeste 15 Sudeste 0 -- -- 68
2019-10-18 03:00:00 14.4 5 Sudeste 10 Sur 0 -- -- 66
2019-10-18 02:00:00 14.3 3 Sur 17 Sudoeste 0 -- -- 66
2019-10-18 01:00:00 15.6 13 Sudoeste 21 Sudoeste 0 -- -- 63
2019-10-18 00:00:00 15.3 4 Sudoeste 7 Sudoeste 0 -- -- 62
2019-10-17 23:00:00 15.6 2 Sudeste 4 Nordeste 0 -- -- 58
2019-10-17 22:00:00 16.7 2 Sudeste 7 Oeste 0 -- -- 54
2019-10-17 21:00:00 17.1 5 Oeste 6 Noroeste 0 -- -- 53
2019-10-17 20:00:00 17.8 4 Norte 13 Norte 0 -- -- 48
2019-10-17 19:00:00 20.1 3 Norte 10 Oeste 0 -- -- 46
2019-10-17 18:00:00 20 4 Norte 23 Este 0 -- -- 46
2019-10-17 17:00:00 21.5 12 Este 26 Este 0 -- -- 41
2019-10-17 16:00:00 20.5 13 Este 21 Este 0 -- -- 39
2019-10-17 15:00:00 21 13 Este 30 Este 0 -- -- 32
2019-10-17 14:00:00 21.5 12 Este 25 Este 0 -- -- 26
2019-10-17 13:00:00 20.5 7 Norte 22 Norte 0 -- -- 27
2019-10-17 12:00:00 18.8 7 Norte 17 Norte 0 -- -- 33
2019-10-17 11:00:00 16.2 5 Este 11 Nordeste 0 -- -- 36
2019-10-17 10:00:00 12.7 4 Este 9 Este 0 -- -- 45
2019-10-17 09:00:00 9.9 5 Este 13 Este 0 -- -- 50
2019-10-17 08:00:00 8.4 6 Este 12 Sudeste 0 -- -- 56
2019-10-17 07:00:00 9.2 6 Este 10 Este 0 -- -- 56
2019-10-17 06:00:00 10.7 3 Este 10 Este 0 -- -- 50
2019-10-17 05:00:00 10.9 8 Este 11 Este 0 -- -- 54
2019-10-17 04:00:00 11.2 3 Este 8 Este 0 -- -- 54
2019-10-17 03:00:00 11.5 4 Este 6 Este 0 -- -- 56
2019-10-17 02:00:00 12.4 4 Sur 8 Sur 0 -- -- 54
2019-10-17 01:00:00 13.4 3 Sudeste 5 Sudeste 0 -- -- 51
2019-10-17 00:00:00 13.8 0 Calma 7 Este 0 -- -- 53
2019-10-16 23:00:00 14.3 6 Este 8 Este 0 -- -- 50
2019-10-16 22:00:00 15.3 3 Oeste 9 Noroeste 0 -- -- 43
2019-10-16 21:00:00 16.4 6 Norte 21 Este 0 -- -- 40
2019-10-16 20:00:00 17.7 8 Nordeste 17 Este 0 -- -- 35
2019-10-16 19:00:00 20.3 3 Norte 12 Norte 0 -- -- 31
2019-10-16 18:00:00 22 6 Norte 20 Este 0 -- -- 28
2019-10-16 17:00:00 20.8 8 Este 27 Este 0 -- -- 30
2019-10-16 16:00:00 19.8 10 Este 18 Nordeste 0 -- -- 31
2019-10-16 15:00:00 19.3 10 Este 20 Este 0 -- -- 32
2019-10-16 14:00:00 20 7 Nordeste 21 Este 0 -- -- 30
2019-10-16 13:00:00 19 9 Este 18 Este 0 -- -- 32
2019-10-16 12:00:00 17.9 6 Este 13 Este 0 -- -- 33
2019-10-16 11:00:00 15.5 5 Este 10 Este 0 -- -- 39
2019-10-16 10:00:00 12.3 3 Sudeste 10 Este 0 -- -- 48
2019-10-16 09:00:00 10.4 2 Este 5 Este 0 -- -- 52
2019-10-16 08:00:00 8.8 4 Este 10 Este 0 -- -- 58
2019-10-16 07:00:00 8.6 3 Este 10 Sudeste 0 -- -- 59
2019-10-16 06:00:00 8.1 4 Este 8 Este 0 -- -- 60
2019-10-16 05:00:00 8.2 6 Este 10 Este 0 -- -- 58
2019-10-16 04:00:00 8.6 3 Este 6 Este 0 -- -- 55
2019-10-16 03:00:00 9 5 Este 7 Este 0 -- -- 53
2019-10-16 02:00:00 9.5 3 Este 6 Este 0 -- -- 51
2019-10-16 01:00:00 10.5 5 Sur 13 Noroeste 0 -- -- 48
2019-10-16 00:00:00 10.7 2 Sudeste 5 Este 0 -- -- 47
2019-10-15 23:00:00 11.6 3 Sur 5 Este 0 -- -- 45
2019-10-15 22:00:00 13 0 Calma 6 Nordeste 0 -- -- 41
2019-10-15 21:00:00 13.5 7 Nordeste 15 Noroeste 0 -- -- 40
2019-10-15 20:00:00 14.5 8 Noroeste 19 Oeste 0 -- -- 37
2019-10-15 19:00:00 17.2 14 Noroeste 23 Noroeste 0 -- -- 33
2019-10-15 18:00:00 18.1 13 Noroeste 29 Oeste 0 -- -- 31
2019-10-15 17:00:00 18.2 10 Noroeste 33 Norte 0 -- -- 32
2019-10-15 16:00:00 17.3 8 Noroeste 53 Norte 0 -- -- 33
2019-10-15 15:00:00 16.3 18 Noroeste 41 Oeste 0 -- -- 35
2019-10-15 14:00:00 16.1 8 Oeste 37 Noroeste 0 -- -- 37
2019-10-15 13:00:00 14.1 22 Noroeste 37 Noroeste 0 -- -- 42
2019-10-15 12:00:00 13.9 9 Oeste 35 Sudoeste 0 -- -- 44
2019-10-15 11:00:00 12 9 Oeste 31 Oeste 0 -- -- 49
2019-10-15 10:00:00 10.2 14 Oeste 31 Oeste 0 -- -- 55
2019-10-15 09:00:00 8.9 14 Oeste 30 Sudoeste 0 -- -- 60
2019-10-15 08:00:00 8.3 10 Oeste 44 Sudoeste 0 -- -- 61
2019-10-15 07:00:00 8.7 28 Sudoeste 49 Sudoeste 0 -- -- 60
2019-10-15 06:00:00 9 8 Noroeste 32 Oeste 0 -- -- 59
2019-10-15 05:00:00 9.6 8 Sudoeste 36 Sudoeste 0 -- -- 62
2019-10-15 04:00:00 10.5 30 Sudoeste 43 Sur 0 -- -- 60
2019-10-15 03:00:00 11.6 20 Oeste 42 Sudoeste 0 -- -- 55
2019-10-15 02:00:00 12.8 20 Sudoeste 42 Sudoeste 0 -- -- 57
2019-10-15 01:00:00 14.3 28 Oeste 45 Oeste 0 -- -- 57
2019-10-15 00:00:00 15.1 30 Oeste 56 Oeste 0 -- -- 53
2019-10-14 23:00:00 17.4 22 Oeste 36 Oeste 0 -- -- 45
2019-10-14 22:00:00 18.5 24 Sudoeste 37 Sudoeste 0 -- -- 43
2019-10-14 21:00:00 17.4 3 Sudeste 13 Sur 0 -- -- 68
2019-10-14 20:00:00 19.3 14 Sur 38 Sudoeste 0 -- -- 57
2019-10-14 19:00:00 19.8 13 Sur 29 Sur 0 -- -- 55
2019-10-14 18:00:00 22 10 Sur 32 Este 0 -- -- 49
2019-10-14 17:00:00 20.2 21 Este 34 Este 0 -- -- 56
2019-10-14 16:00:00 20.6 6 Sur 25 Sudoeste 0 -- -- 48
2019-10-14 15:00:00 19.5 14 Sudeste 63 Sur 0 -- -- 50
2019-10-14 14:00:00 19.3 38 Sudoeste 64 Sudoeste 0 -- -- 50
2019-10-14 13:00:00 21.6 27 Sudoeste 54 Sudoeste 0 -- -- 43
2019-10-14 12:00:00 20.1 5 Sudeste 17 Sudeste 0 -- -- 60
2019-10-14 11:00:00 20.2 13 Este 23 Este 0 -- -- 60
2019-10-14 10:00:00 18.4 12 Sudeste 22 Sur 0 -- -- 66
2019-10-14 09:00:00 17.4 19 Sur 28 Sur 0 -- -- 69
2019-10-14 08:00:00 17.3 17 Sudoeste 23 Sudoeste 0 -- -- 67
2019-10-14 07:00:00 17.3 15 Sudoeste 20 Sur 0 -- -- 68
2019-10-14 06:00:00 17 6 Este 9 Este 0 -- -- 70
2019-10-14 05:00:00 16.4 0 Calma 9 Este 0 -- -- 65
2019-10-14 04:00:00 16.8 4 Sudeste 8 Sudeste 0 -- -- 66
2019-10-14 03:00:00 16.9 4 Sudeste 10 Sur 0 -- -- 69
2019-10-14 02:00:00 17.3 8 Sur 13 Sur 0 -- -- 72
2019-10-14 01:00:00 18 6 Sur 15 Sur 0 -- -- 71
2019-10-14 00:00:00 18 5 Sudeste 28 Sur 0 -- -- 75